Capitol Logistics 2115

Operating for AJT



KAUS
Austin-Bergstrom International Airport
Austin, Texas
KCVG
Cincinnati/Northern Kentucky International Airport
Covington, Kentucky

Activity Log

Date Flight Route Aircraft Duration
No Flights Yet

Route Details

Aircraft Information
Primary: Boeing 767-300BDSF
Backup: Boeing 757-200SF
Route Data
Distance: 833nm
Duration: 1h 52m
Recm'd Route: ILEXY2 ZENZI LFK ELD KM24I PXV SARGO3
Origin Wx: KAUS 141853Z 04012KT 10SM FEW025 FEW200 FEW300 26/17 A2995 RMK AO2 SLP132 T02560167
Dest. Wx: KCVG 141852Z 22006KT 10SM FEW041 BKN130 BKN250 14/03 A3005 RMK AO2 SLP171 T01440033
Notes: